createdAt,value
2019-01-28T00:01:12.632Z,12.03
2019-01-28T00:03:43.333Z,9.03
2019-01-28T00:06:12.868Z,11.10
2019-01-28T00:08:42.606Z,11.17
2019-01-28T00:11:12.093Z,13.27
2019-01-28T00:13:41.520Z,11.87
2019-01-28T00:16:10.945Z,14.70
2019-01-28T00:18:40.391Z,10.60
2019-01-28T00:21:09.792Z,10.77
2019-01-28T00:23:39.448Z,11.47
2019-01-28T00:26:08.884Z,12.97
2019-01-28T00:28:38.361Z,11.60
2019-01-28T00:31:08.544Z,10.10
2019-01-28T00:33:38.413Z,9.10
2019-01-28T00:36:08.272Z,12.37
2019-01-28T00:38:37.667Z,12.53
2019-01-28T00:41:07.141Z,9.83
2019-01-28T00:43:36.593Z,11.17
2019-01-28T00:46:06.409Z,9.97
2019-01-28T00:48:35.852Z,10.07
2019-01-28T00:51:05.367Z,11.23
2019-01-28T00:53:35.078Z,15.63
2019-01-28T00:56:04.534Z,13.90
2019-01-28T00:58:34.187Z,13.47
2019-01-28T01:01:03.644Z,10.30
2019-01-28T01:03:52.109Z,14.50
2019-01-28T01:06:21.524Z,11.93
2019-01-28T01:08:51.044Z,11.67
2019-01-28T01:11:20.458Z,9.77
2019-01-28T01:13:49.820Z,9.57
2019-01-28T01:16:19.264Z,8.30
2019-01-28T01:18:48.899Z,11.43
2019-01-28T01:21:18.262Z,11.37
2019-01-28T01:23:47.886Z,10.37
2019-01-28T01:26:17.716Z,11.53
2019-01-28T01:28:47.078Z,9.57
2019-01-28T01:31:16.491Z,14.27
2019-01-28T01:33:45.944Z,13.23
2019-01-28T01:36:15.298Z,11.80
2019-01-28T01:38:44.858Z,11.57
2019-01-28T01:41:14.302Z,14.03
2019-01-28T01:43:43.769Z,10.03
2019-01-28T01:46:13.274Z,10.97
2019-01-28T01:48:42.731Z,10.47
2019-01-28T01:51:12.240Z,11.63
2019-01-28T01:53:41.845Z,10.73
2019-01-28T01:56:11.206Z,13.37
2019-01-28T01:58:40.618Z,9.57
2019-01-28T02:01:09.972Z,10.33
2019-01-28T02:03:39.321Z,10.67
2019-01-28T02:06:08.991Z,13.73
2019-01-28T02:08:38.362Z,12.57
2019-01-28T02:11:07.808Z,11.53
2019-01-28T02:13:37.238Z,15.47
2019-01-28T02:16:06.612Z,10.47
2019-01-28T02:18:36.368Z,9.03
2019-01-28T02:21:06.191Z,11.37
2019-01-28T02:23:35.573Z,11.63
2019-01-28T02:26:05.356Z,11.90
2019-01-28T02:28:34.688Z,13.43
2019-01-28T02:31:16.052Z,12.23
2019-01-28T02:33:45.874Z,12.17
2019-01-28T02:36:15.256Z,11.53
2019-01-28T02:38:44.578Z,13.73
2019-01-28T02:41:14.045Z,12.90
2019-01-28T02:43:43.474Z,11.57
2019-01-28T02:46:13.292Z,10.37
2019-01-28T02:48:42.832Z,11.57
2019-01-28T02:51:12.272Z,11.47
2019-01-28T02:53:41.758Z,11.87
2019-01-28T02:56:11.364Z,10.73
2019-01-28T02:58:40.754Z,11.17
2019-01-28T03:01:10.171Z,10.80
2019-01-28T03:03:39.979Z,15.07
2019-01-28T03:06:09.726Z,12.13
2019-01-28T03:08:39.144Z,11.13
2019-01-28T03:11:10.474Z,11.27
2019-01-28T03:13:39.928Z,11.80
2019-01-28T03:16:09.351Z,13.47
2019-01-28T03:18:39.100Z,10.43
2019-01-28T03:21:08.666Z,10.73
2019-01-28T03:23:38.090Z,10.63
2019-01-28T03:26:07.442Z,10.60
2019-01-28T03:28:36.918Z,10.53
2019-01-28T03:31:06.398Z,11.17
2019-01-28T03:33:36.252Z,10.90
2019-01-28T03:36:05.696Z,11.83
2019-01-28T03:38:35.324Z,10.43
2019-01-28T03:41:04.794Z,10.00
2019-01-28T03:43:34.234Z,11.67
2019-01-28T03:46:03.657Z,10.23
2019-01-28T03:48:33.030Z,9.97
2019-01-28T03:51:02.475Z,12.57
2019-01-28T03:53:31.992Z,10.70
2019-01-28T03:56:01.430Z,11.33
2019-01-28T03:58:30.859Z,10.87
2019-01-28T04:01:00.320Z,10.90
2019-01-28T04:03:29.760Z,11.47
2019-01-28T04:05:59.159Z,11.90
2019-01-28T04:08:28.681Z,12.73
2019-01-28T04:10:58.006Z,13.37
2019-01-28T04:13:27.812Z,10.73
2019-01-28T04:15:57.209Z,10.50
2019-01-28T04:18:26.629Z,9.77
2019-01-28T04:20:56.056Z,11.43
2019-01-28T04:23:25.956Z,10.90
2019-01-28T04:25:55.589Z,10.70
2019-01-28T04:28:25.415Z,11.70
2019-01-28T04:30:54.889Z,13.60
2019-01-28T04:33:24.326Z,11.47
2019-01-28T04:35:53.791Z,10.40
2019-01-28T04:38:23.330Z,10.37
2019-01-28T04:40:52.776Z,11.27
2019-01-28T04:43:22.257Z,11.57
2019-01-28T04:45:51.803Z,10.50
2019-01-28T04:48:21.260Z,10.93
2019-01-28T04:50:50.907Z,10.67
2019-01-28T04:53:20.527Z,10.57
2019-01-28T04:55:50.297Z,10.23
2019-01-28T04:58:19.687Z,9.93
2019-01-28T05:00:49.099Z,9.57
2019-01-28T05:03:19.026Z,11.37
2019-01-28T05:05:48.525Z,10.20
2019-01-28T05:08:17.935Z,10.37
2019-01-28T05:10:47.359Z,11.53
2019-01-28T05:13:21.473Z,10.03
2019-01-28T05:15:51.367Z,9.83
2019-01-28T05:18:20.779Z,11.53
2019-01-28T05:20:50.202Z,9.80
2019-01-28T05:23:19.609Z,10.43
2019-01-28T05:25:49.035Z,9.53
2019-01-28T05:28:18.454Z,9.83
2019-01-28T05:30:47.926Z,9.43
2019-01-28T05:33:17.357Z,9.87
2019-01-28T05:35:46.789Z,10.30
2019-01-28T05:38:16.215Z,9.77
2019-01-28T05:40:45.639Z,9.90
2019-01-28T05:43:15.101Z,9.57
2019-01-28T05:45:44.871Z,8.70
2019-01-28T05:48:14.459Z,10.50
2019-01-28T05:50:44.114Z,10.50
2019-01-28T05:53:13.569Z,11.73
2019-01-28T05:55:42.969Z,10.93
2019-01-28T05:58:12.429Z,11.10
2019-01-28T06:00:44.357Z,10.97
2019-01-28T06:03:13.773Z,8.83
2019-01-28T06:05:43.338Z,8.47
2019-01-28T06:08:12.769Z,15.90
2019-01-28T06:10:42.552Z,10.63
2019-01-28T06:13:11.969Z,9.27
2019-01-28T06:15:41.400Z,10.20
2019-01-28T06:18:10.845Z,9.60
2019-01-28T06:20:40.474Z,10.23
2019-01-28T06:23:09.953Z,12.57
2019-01-28T06:25:39.343Z,10.67
2019-01-28T06:28:08.876Z,11.43
2019-01-28T06:30:39.331Z,10.67
2019-01-28T06:33:08.891Z,9.77
2019-01-28T06:35:38.418Z,12.37
2019-01-28T06:38:07.840Z,10.10
2019-01-28T06:40:37.544Z,9.97
2019-01-28T06:43:07.219Z,11.80
2019-01-28T06:45:36.631Z,11.50
2019-01-28T06:48:06.717Z,13.13
2019-01-28T06:50:36.319Z,11.27
2019-01-28T06:53:06.169Z,10.57
2019-01-28T06:55:35.689Z,11.30
2019-01-28T06:58:05.370Z,13.17
2019-01-28T07:00:36.323Z,11.70
2019-01-28T07:03:07.693Z,12.80
2019-01-28T07:05:37.301Z,11.30
2019-01-28T07:08:07.153Z,11.63
2019-01-28T07:10:36.559Z,12.43
2019-01-28T07:13:05.931Z,12.97
2019-01-28T07:15:35.463Z,12.50
2019-01-28T07:18:05.023Z,11.57
2019-01-28T07:20:34.500Z,12.17
2019-01-28T07:23:03.936Z,11.13
2019-01-28T07:25:33.387Z,11.77
2019-01-28T07:28:02.819Z,11.20
2019-01-28T07:30:37.528Z,10.50
2019-01-28T07:33:07.313Z,10.00
2019-01-28T07:35:36.821Z,9.93
2019-01-28T07:38:06.449Z,9.17
2019-01-28T07:40:36.265Z,10.07
2019-01-28T07:43:05.685Z,9.10
2019-01-28T07:45:44.643Z,9.77
2019-01-28T07:48:08.319Z,8.87
2019-01-28T07:50:37.891Z,8.87
2019-01-28T07:53:07.569Z,9.53
2019-01-28T07:55:37.111Z,8.80
2019-01-28T07:58:06.944Z,10.20
2019-01-28T08:00:36.592Z,9.27
2019-01-28T08:03:06.638Z,9.27
2019-01-28T08:05:36.123Z,8.37
2019-01-28T08:08:06.061Z,8.50
2019-01-28T08:10:36.037Z,9.07
2019-01-28T08:13:06.267Z,10.03
2019-01-28T08:15:35.726Z,9.30
2019-01-28T08:18:10.527Z,9.60
2019-01-28T08:20:36.679Z,10.00
2019-01-28T08:23:06.525Z,10.23
2019-01-28T08:25:36.318Z,8.70
2019-01-28T08:28:05.892Z,9.53
2019-01-28T08:30:37.553Z,9.17
2019-01-28T08:33:07.253Z,7.20
2019-01-28T08:35:38.561Z,8.27
2019-01-28T08:38:08.147Z,7.93
2019-01-28T08:40:37.566Z,7.87
2019-01-28T08:43:07.017Z,8.20
2019-01-28T08:45:36.704Z,10.17
2019-01-28T08:48:06.191Z,9.63
2019-01-28T08:50:35.733Z,8.87
2019-01-28T08:53:05.525Z,9.13
2019-01-28T08:55:35.213Z,9.80
2019-01-28T08:58:04.951Z,10.17
2019-01-28T09:00:36.746Z,10.77
2019-01-28T09:03:06.165Z,11.53
2019-01-28T09:05:35.840Z,9.80
2019-01-28T09:08:06.673Z,11.50
2019-01-28T09:10:36.359Z,8.23
2019-01-28T09:13:06.432Z,8.67
2019-01-28T09:15:36.369Z,11.73
2019-01-28T09:18:07.661Z,9.50
2019-01-28T09:20:37.345Z,12.30
2019-01-28T09:23:06.713Z,11.70
2019-01-28T09:25:36.279Z,11.03
2019-01-28T09:28:08.399Z,12.28
2019-01-28T09:30:38.336Z,13.07
2019-01-28T09:33:07.775Z,12.43
2019-01-28T09:35:37.228Z,11.43
2019-01-28T09:38:07.648Z,11.27
2019-01-28T09:40:37.503Z,12.30
2019-01-28T09:43:07.846Z,10.00
2019-01-28T09:45:42.050Z,12.53
2019-01-28T09:48:34.396Z,9.73
2019-01-28T09:51:04.059Z,9.33
2019-01-28T09:53:33.489Z,11.93
2019-01-28T09:56:02.943Z,11.80
2019-01-28T09:58:32.414Z,11.43
2019-01-28T10:01:02.271Z,15.27
2019-01-28T10:03:31.748Z,11.77
2019-01-28T10:06:01.201Z,13.40
2019-01-28T10:08:30.922Z,16.40
2019-01-28T10:11:00.514Z,15.47
2019-01-28T10:13:29.933Z,14.77
2019-01-28T10:15:59.353Z,14.77
2019-01-28T10:18:28.793Z,14.50
2019-01-28T10:20:58.183Z,18.17
2019-01-28T10:23:27.801Z,15.03
2019-01-28T10:25:57.843Z,15.40
2019-01-28T10:28:27.493Z,14.37
2019-01-28T10:30:56.909Z,11.07
2019-01-28T10:33:26.322Z,15.17
2019-01-28T10:35:56.170Z,12.37
2019-01-28T10:38:25.913Z,15.70
2019-01-28T10:40:55.261Z,14.67
2019-01-28T10:43:24.718Z,16.10
2019-01-28T10:45:54.063Z,18.47
2019-01-28T10:48:23.524Z,18.00
2019-01-28T10:50:52.899Z,17.37
2019-01-28T10:53:22.573Z,18.63
2019-01-28T10:55:52.162Z,18.50
2019-01-28T10:58:21.589Z,21.57
2019-01-28T11:00:52.014Z,19.03
2019-01-28T11:03:23.941Z,20.77
2019-01-28T11:05:54.009Z,21.83
2019-01-28T11:08:23.487Z,19.07
2019-01-28T11:10:52.902Z,23.30
2019-01-28T11:13:22.681Z,21.33
2019-01-28T11:15:52.130Z,22.47
2019-01-28T11:18:27.366Z,19.33
2019-01-28T11:20:57.363Z,24.80
2019-01-28T11:23:27.470Z,20.50
2019-01-28T11:25:56.906Z,21.10
2019-01-28T11:28:26.488Z,21.03
2019-01-28T11:31:00.089Z,20.07
2019-01-28T11:33:29.595Z,20.87
2019-01-28T11:36:05.091Z,20.60
2019-01-28T11:38:30.677Z,21.90
2019-01-28T11:41:00.219Z,17.03
2019-01-28T11:43:29.664Z,18.50
2019-01-28T11:46:01.415Z,19.73
2019-01-28T11:48:32.768Z,19.47
2019-01-28T11:51:02.205Z,19.47
2019-01-28T11:53:32.294Z,19.70
2019-01-28T11:56:02.066Z,20.13
2019-01-28T11:58:31.505Z,20.77
2019-01-28T12:01:27.426Z,17.07
2019-01-28T12:03:56.874Z,17.17
2019-01-28T12:06:26.694Z,17.50
2019-01-28T12:08:56.128Z,16.23
2019-01-28T12:11:25.830Z,14.87
2019-01-28T12:13:55.346Z,16.13
2019-01-28T12:16:24.701Z,14.20
2019-01-28T12:18:54.198Z,13.73
2019-01-28T12:21:24.043Z,14.27
2019-01-28T12:23:53.502Z,14.87
2019-01-28T12:26:23.038Z,15.30
2019-01-28T12:28:52.875Z,14.67
2019-01-28T12:31:22.596Z,13.27
2019-01-28T12:33:52.382Z,15.87
2019-01-28T12:36:21.910Z,14.30
2019-01-28T12:38:51.366Z,14.50
2019-01-28T12:41:20.888Z,13.50
2019-01-28T12:43:50.643Z,13.53
2019-01-28T12:46:20.304Z,15.80
2019-01-28T12:48:50.169Z,13.73
2019-01-28T12:51:19.733Z,14.20
2019-01-28T12:53:49.218Z,11.93
2019-01-28T12:56:18.720Z,12.37
2019-01-28T12:58:49.946Z,14.40
2019-01-28T13:01:19.373Z,12.23
2019-01-28T13:03:48.890Z,11.20
2019-01-28T13:06:18.748Z,13.73
2019-01-28T13:08:48.512Z,10.90
2019-01-28T13:11:17.874Z,5.17
2019-01-28T13:13:47.316Z,3.80
2019-01-28T13:16:16.726Z,3.03
2019-01-28T13:18:46.122Z,3.03
2019-01-28T13:21:15.556Z,2.10
2019-01-28T13:23:45.350Z,1.70
2019-01-28T13:26:14.772Z,1.43
2019-01-28T13:28:44.338Z,1.40
2019-01-28T13:31:13.738Z,0.97
2019-01-28T13:33:43.560Z,2.33
2019-01-28T13:36:13.010Z,1.43
2019-01-28T13:38:42.529Z,1.30
2019-01-28T13:41:12.362Z,2.57
2019-01-28T13:43:41.812Z,1.10
2019-01-28T13:46:11.245Z,1.40
2019-01-28T13:48:40.720Z,1.60
2019-01-28T13:51:10.267Z,2.83
2019-01-28T13:53:39.680Z,2.67
2019-01-28T13:56:09.100Z,2.23
2019-01-28T13:58:57.625Z,2.70
2019-01-28T14:01:27.551Z,2.10
2019-01-28T14:03:58.598Z,2.27
2019-01-28T14:06:28.148Z,3.20
2019-01-28T14:08:58.020Z,2.37
2019-01-28T14:11:27.741Z,3.70
2019-01-28T14:13:57.182Z,2.63
2019-01-28T14:16:26.783Z,3.67
2019-01-28T14:18:56.228Z,2.57
2019-01-28T14:21:25.718Z,4.50
2019-01-28T14:23:55.325Z,2.90
2019-01-28T14:26:24.777Z,4.83
2019-01-28T14:28:54.104Z,3.33
2019-01-28T14:31:23.576Z,5.33
2019-01-28T14:33:52.996Z,3.33
2019-01-28T14:36:22.422Z,3.40
2019-01-28T14:38:52.033Z,3.93
2019-01-28T14:41:21.778Z,4.03
2019-01-28T14:43:51.182Z,3.83
2019-01-28T14:46:20.982Z,5.83
2019-01-28T14:48:50.353Z,4.40
2019-01-28T14:51:19.750Z,2.70
2019-01-28T14:53:49.529Z,3.83
2019-01-28T14:56:19.027Z,3.00
2019-01-28T14:58:48.434Z,5.13
2019-01-28T15:01:17.890Z,2.97
2019-01-28T15:03:48.291Z,6.43
2019-01-28T15:06:17.816Z,5.03
2019-01-28T15:08:47.372Z,3.90
2019-01-28T15:11:16.726Z,5.33
2019-01-28T15:13:46.190Z,3.47
2019-01-28T15:16:15.524Z,4.37
2019-01-28T15:18:45.067Z,3.97
2019-01-28T15:21:14.601Z,6.13
2019-01-28T15:23:44.089Z,4.63
2019-01-28T15:26:13.529Z,5.43
2019-01-28T15:28:43.088Z,4.57
2019-01-28T15:31:13.719Z,3.47
2019-01-28T15:33:43.181Z,3.27
2019-01-28T15:36:12.711Z,3.30
2019-01-28T15:38:42.100Z,3.63
2019-01-28T15:41:11.582Z,3.50
2019-01-28T15:43:40.997Z,5.80
2019-01-28T15:46:10.458Z,5.73
2019-01-28T15:48:39.982Z,4.23
2019-01-28T15:51:09.436Z,4.77
2019-01-28T15:53:39.278Z,4.97
2019-01-28T15:56:08.624Z,3.63
2019-01-28T15:58:38.065Z,3.33
2019-01-28T16:01:07.986Z,4.40
2019-01-28T16:03:37.500Z,3.83
2019-01-28T16:06:06.879Z,2.60
2019-01-28T16:08:36.358Z,3.77
2019-01-28T16:11:06.243Z,6.27
2019-01-28T16:13:35.902Z,4.10
2019-01-28T16:16:05.623Z,6.37
2019-01-28T16:18:35.546Z,6.00
2019-01-28T16:21:07.226Z,5.20
2019-01-28T16:23:36.530Z,3.80
2019-01-28T16:26:06.864Z,4.70
2019-01-28T16:28:36.292Z,4.93
2019-01-28T16:31:06.159Z,3.97
2019-01-28T16:33:35.760Z,4.77
2019-01-28T16:36:06.092Z,3.80
2019-01-28T16:38:35.474Z,4.27
2019-01-28T16:41:06.230Z,5.03
2019-01-28T16:43:36.032Z,6.63
2019-01-28T16:46:05.559Z,5.63
2019-01-28T16:48:35.216Z,4.93
2019-01-28T16:51:06.031Z,6.93
2019-01-28T16:53:35.502Z,5.73
2019-01-28T16:56:05.402Z,7.03
2019-01-28T16:58:36.201Z,5.47
2019-01-28T17:01:05.982Z,8.93
2019-01-28T17:03:35.394Z,6.70
2019-01-28T17:06:05.531Z,8.63
2019-01-28T17:08:34.959Z,10.17
2019-01-28T17:11:04.512Z,6.00
2019-01-28T17:13:33.974Z,8.47
2019-01-28T17:16:03.499Z,10.77
2019-01-28T17:18:32.930Z,8.37
2019-01-28T17:21:02.384Z,9.27
2019-01-28T17:23:31.824Z,8.67
2019-01-28T17:26:01.242Z,8.77
2019-01-28T17:28:30.732Z,11.20
2019-01-28T17:31:00.281Z,11.90
2019-01-28T17:33:30.034Z,12.30
2019-01-28T17:35:59.430Z,7.63
2019-01-28T17:38:28.897Z,10.00
2019-01-28T17:40:58.328Z,14.43
2019-01-28T17:43:27.753Z,10.77
2019-01-28T17:45:57.205Z,10.50
2019-01-28T17:48:26.602Z,11.57
2019-01-28T17:50:55.961Z,10.37
2019-01-28T17:53:25.403Z,13.30
2019-01-28T17:55:54.908Z,14.00
2019-01-28T17:58:24.340Z,12.40
2019-01-28T18:00:56.192Z,12.27
2019-01-28T18:03:25.796Z,14.00
2019-01-28T18:05:55.570Z,16.73
2019-01-28T18:08:25.086Z,6.87
2019-01-28T18:10:54.911Z,20.97
2019-01-28T18:13:24.353Z,18.73
2019-01-28T18:15:53.817Z,16.33
2019-01-28T18:18:23.515Z,9.63
2019-01-28T18:20:53.314Z,12.93
2019-01-28T18:23:42.178Z,8.30
2019-01-28T18:26:11.676Z,7.77
2019-01-28T18:28:41.106Z,8.83
2019-01-28T18:31:10.568Z,10.27
2019-01-28T18:33:40.113Z,8.37
2019-01-28T18:36:09.730Z,13.80
2019-01-28T18:38:39.117Z,7.93
2019-01-28T18:41:08.598Z,8.87
2019-01-28T18:43:38.033Z,7.67
2019-01-28T18:46:07.455Z,10.00
2019-01-28T18:48:36.863Z,6.10
2019-01-28T18:51:06.496Z,10.40
2019-01-28T18:53:36.228Z,5.67
2019-01-28T18:56:06.700Z,4.97
2019-01-28T18:58:36.183Z,8.53
2019-01-28T19:01:06.233Z,6.50
2019-01-28T19:03:36.091Z,6.07
2019-01-28T19:06:22.921Z,12.30
2019-01-28T19:09:26.724Z,8.77
2019-01-28T19:12:18.857Z,6.50
2019-01-28T19:14:59.802Z,10.60
2019-01-28T19:17:41.937Z,8.47
2019-01-28T19:20:46.165Z,9.60
2019-01-28T19:23:15.586Z,6.40
2019-01-28T19:25:45.136Z,6.70
2019-01-28T19:28:14.673Z,9.50
2019-01-28T19:30:44.313Z,5.37
2019-01-28T19:33:13.822Z,7.90
2019-01-28T19:35:43.267Z,6.60
2019-01-28T19:38:12.762Z,9.50
2019-01-28T19:40:42.216Z,6.03
2019-01-28T19:43:11.609Z,9.40
2019-01-28T19:45:41.378Z,8.43
2019-01-28T19:48:11.211Z,6.17
2019-01-28T19:50:40.630Z,10.57
2019-01-28T19:53:10.218Z,11.37
2019-01-28T19:55:39.727Z,9.90
2019-01-28T19:58:09.327Z,6.37
2019-01-28T20:00:38.973Z,12.27
2019-01-28T20:03:10.193Z,12.80
2019-01-28T20:05:39.675Z,8.63
2019-01-28T20:08:09.141Z,7.20
2019-01-28T20:10:38.960Z,7.37
2019-01-28T20:13:08.411Z,7.27
2019-01-28T20:15:37.889Z,8.83
2019-01-28T20:18:07.468Z,8.60
2019-01-28T20:20:37.002Z,7.23
2019-01-28T20:23:06.480Z,12.63
2019-01-28T20:25:36.129Z,12.50
2019-01-28T20:28:05.872Z,8.63
2019-01-28T20:30:35.221Z,6.10
2019-01-28T20:33:04.895Z,8.13
2019-01-28T20:35:34.352Z,8.23
2019-01-28T20:38:03.884Z,13.47
2019-01-28T20:40:33.309Z,9.10
2019-01-28T20:43:02.915Z,8.53
2019-01-28T20:45:32.466Z,7.93
2019-01-28T20:48:01.924Z,6.40
2019-01-28T20:50:31.785Z,9.00
2019-01-28T20:53:01.261Z,10.40
2019-01-28T20:55:30.782Z,13.80
2019-01-28T20:58:00.169Z,9.07
2019-01-28T21:00:29.768Z,16.13
2019-01-28T21:02:59.411Z,7.33
2019-01-28T21:05:28.839Z,10.30
2019-01-28T21:07:58.749Z,10.00
2019-01-28T21:10:28.656Z,8.37
2019-01-28T21:12:58.070Z,8.67
2019-01-28T21:15:27.587Z,9.77
2019-01-28T21:17:57.017Z,16.83
2019-01-28T21:20:33.308Z,6.77
2019-01-28T21:23:03.049Z,9.20
2019-01-28T21:25:32.530Z,7.03
2019-01-28T21:28:01.938Z,10.23
2019-01-28T21:30:34.226Z,11.67
2019-01-28T21:33:03.867Z,12.97
2019-01-28T21:36:04.222Z,13.63
2019-01-28T21:38:40.925Z,16.97
2019-01-28T21:41:10.722Z,13.83
2019-01-28T21:43:40.190Z,16.03
2019-01-28T21:46:09.601Z,13.93
2019-01-28T21:48:39.009Z,11.43
2019-01-28T21:51:08.488Z,13.90
2019-01-28T21:53:38.251Z,12.43
2019-01-28T21:56:07.681Z,11.13
2019-01-28T21:58:37.109Z,14.77
2019-01-28T22:01:08.430Z,7.77
2019-01-28T22:03:37.858Z,6.40
2019-01-28T22:06:07.401Z,9.87
2019-01-28T22:08:36.884Z,10.57
2019-01-28T22:11:06.315Z,6.87
2019-01-28T22:13:35.857Z,9.30
2019-01-28T22:16:05.473Z,9.50
2019-01-28T22:18:34.921Z,11.90
2019-01-28T22:21:09.056Z,7.57
2019-01-28T22:23:39.285Z,9.83
2019-01-28T22:26:08.693Z,8.93
2019-01-28T22:28:38.063Z,7.77
2019-01-28T22:31:07.473Z,10.53
2019-01-28T22:33:37.001Z,8.03
2019-01-28T22:36:07.627Z,11.83
2019-01-28T22:38:37.058Z,11.07
2019-01-28T22:41:06.564Z,12.47
2019-01-28T22:43:36.114Z,9.33
2019-01-28T22:46:05.948Z,7.43
2019-01-28T22:48:35.365Z,11.20
2019-01-28T22:51:04.720Z,10.97
2019-01-28T22:53:34.137Z,9.70
2019-01-28T22:56:03.562Z,5.87
2019-01-28T22:58:33.404Z,6.30
2019-01-28T23:01:31.600Z,13.63
2019-01-28T23:04:01.126Z,5.43
2019-01-28T23:06:30.575Z,8.00
2019-01-28T23:09:00.127Z,7.93
2019-01-28T23:11:29.540Z,8.70
2019-01-28T23:13:58.965Z,9.90
2019-01-28T23:16:28.390Z,7.53
2019-01-28T23:18:57.820Z,8.57
2019-01-28T23:21:27.170Z,9.07
2019-01-28T23:23:56.610Z,8.73
2019-01-28T23:26:26.045Z,6.13
2019-01-28T23:28:55.441Z,9.20
2019-01-28T23:31:24.796Z,10.67
2019-01-28T23:33:54.164Z,6.47
2019-01-28T23:36:24.024Z,5.03
2019-01-28T23:38:53.430Z,5.17
2019-01-28T23:41:22.789Z,5.23
2019-01-28T23:43:52.299Z,10.07
2019-01-28T23:46:21.770Z,5.87
2019-01-28T23:48:51.162Z,4.57
2019-01-28T23:51:20.666Z,5.30
2019-01-28T23:53:50.079Z,2.93
2019-01-28T23:56:19.528Z,3.30
2019-01-28T23:58:48.957Z,5.37
